Timeline UpdatesTrip UpdatesNews PostsPvt PostsTravel TipsAdmin PostsConv PostsFollowed PostsChat RequestsBlog PostsPNR Posts

Disclaimer
Search
 
 
Fri Aug 22, 2014 19:15:43 ISTHomeTrainsΣChainsAtlasPNRForumGalleryNewsFAQTripsMembersLoginFeedback
No Recent News for this Train
Other Trains in the News **new
Latest...
Train leaving its originating station on 11/07, 13/07, 14/07, 15/07, 16/07, 17/07, 18/07 and 19/07 will be diverted to run via Siwan-Thane-Kaptanganj-Gorakhpur instead of existing route via Siwan-Bhatni-Deoria Sadar-Gorakhpur
Fri Jul 11, 2014 (07:43AM)
⇐ Return Journey: Train# 15708

15707/Amrapali Express

Feb 22 2014 (1:18PM)
Change Departure Station:
Change Arrival Station:
Post a Train Travel TipPost a Train Travel Tip **new
Post a Comment/Question/Picture/VideoPost a Comment/Question/Picture/Video
Pantry/Catering
✕ NO Pantry Car
✓ Catering Avbl
RSA - Rake Sharing
Rake/Coach Composition
Loco«SLR-GN-GN-GN-GN-A1-B1-S1-S2-S3-S4-S5-S6-S7-S8-S9-GN-GN-GN-GN-GN-SLR= 22 Coach Train. S1 becomes S9 in DN train.
Loco
SGUJ WDP 4 from KIR-LKO, CNB WAP 4 from...
Read more...
LKO-ASR.
News    PNR    Forum    Time-Table    Availability    Fare Chart    Map    Arr/Dep History    Trips    Gallery    ΣChains    X/O    Timeline    
Travel Time: 1h 26m    1 halts    Distance: 89 km    Avg Speed: 62 km/hr
Type: Mail/Express
Zone: NFR/Northeast Frontier
Departs @ 03:25 (Avg 1h 56m late)
Platform# 10
SMTWTFS
Old Delhi Junction/DLI 
Arrives @ 04:51 (Avg 2h 11m late)
Platform# 3
SMTWTFS
Panipat Junction/PNP 

1 halts. 18 intermediate Stations between Old Delhi Junction and Panipat Junction

Hide intermediate Stations  Show Old Time-Table

#CodeStation NameX/OArrivesAvgDepartsAvgHaltPFDay#KmSpeedElevZoneAddress
1KIRKatihar Junction (7)  -23:30+311-1350.86435mNFRKatihar 854105, Bihar
1.1SMOSemapurX  23:41-23:41-  1-1339.3 6435mECRKatihar, Bihar
2CRRKaragola Road  23:51+2223:52+241m--1-1328.56836mECRLachhmipur, Bihar
2.1BRZRBarari Bazar  23:54-23:54-  1-1325.8 6834mECRMarghia, Bihar
2.2BKHRBakhriX  23:57-23:57-  1-1323.1 6835mECRBakhri, Bihar
3KUEKursela  00:07+2900:08+311m--2-1311.66531mECRNH 31, Bihar
3.1KTRHKatareahX  00:15-00:15-  2-1304.1 650mECRKumadpur, Bihar
4NNANaugachia  00:25+4000:26+411m--2-1293.06037mECRBhagalpur, Bihar
4.1KHQKharik  00:34-00:34-  2-1285.2 6038mECRKharik, Bihar
4.2BIGHBagrigram HaltX  00:37-00:37-  2-1282.0 6038mECRBagri, Bihar
5THBThana Bihpur Junction  00:42+4300:43+441m--2-1277.16339mECRThana Bihpur, Bihar
5.1NNRNarayanpur  00:50-00:50-  2-1269.5 6339mECRNarayanpur, Bihar
5.2BRKBBharat Khand  00:55-00:55-  2-1264.1 6334mECRBharat Khand, Bihar
5.3BRKDBharat Khand  00:55-00:55-  2-1264.1 6335mECRNational Highway 31, Bihar
5.4PSRPasraha  01:01-01:01-  2-1257.9 6341mECRPasraha, Bihar
5.5GAIGauchhari  01:09-01:09-  2-1249.6 6340mECRGauchhari, Bihar
5.6MSKMahes Khunt  01:13-01:13-  2-1245.5 6337mECRMaheshkhunt, Bihar
5.7CDBNChedhabanni Halt  01:18-01:18-  2-1239.9 6342mECRChedhabanni, Bihar
6MNEMansi Junction (3)X  01:23+4801:24+491m--2-1235.12843mECRMansi, Bihar
7KGGKhagaria Junction (3)  01:43+4201:44+451m--2-1226.35243mECRKhagaria, Bihar
7.1UMNRUmeshnagar  01:52-01:52-  2-1219.5 5241mECRNational Highway 31, Bihar
7.2SKJSahibpur Kamal Junction (2)X  01:58-01:58-  2-1213.9 5241mECRShahpur Kamal, Bihar
7.3SANHSanha Halt  02:02-02:02-  2-1210.4 5242mECRSanha, Bihar
7.4LKNLakhminia  02:09-02:09-  2-1204.2 5245mECRBegusarai, Bihar
7.5DPLDanauli Phulwaria  02:16-02:16-  2-1198.9 5242mECRDanauli Phlwria, Bihar
7.6LAKLakhoX  02:21-02:21-  2-1193.8 5244mECRLakho, Bihar
8BGSBegu Sarai (3)X  02:30+3502:31+371m--2-1186.421 ECRBegusarai, Bihar
8.1TILTilrath (2)  02:51-02:51-  2-1179.6 2146mECRNH 31, Bihar
8.2BEHTBihat Halt (2)  03:01-03:01-  2-1175.9 2146mECRBihat Halt, Bihar
9BJUBarauni Junction (9)X  03:10+3603:20+3810m72-1173.05349mECRBegusarai, Bihar
9.1BUJBarauni Flag (2)  03:23-03:23-  2-1170.3 5349mECRDistt: Begusarai, Bihar
9.2TGATeghra (3)  03:28-03:28-  2-1165.6 5348mECRBegusarai, Bihar
9.3BCABachwara Junction  03:38-03:38-  2-1156.6 5349mECRBegusarai, Bihar
9.4STJTSathajagat  03:46-03:46-  2-1150.2 5349mECRSathajagat, Bihar
9.5DSSDalsingh Sarai (2)  03:51-03:51-  2-1145.7 53 ECR06278-221238, Bihar
9.6BSRABasarhia Halt  03:56-03:56-  2-1141.4 5352mECRBasaria, Bihar
9.7NAZJNazirGanj  04:00-04:00-  2-1137.8 5351mECRNazirGanj, Bihar
9.8UJPUjiarpur (2)  04:07-04:07-  2-1131.5 5351mECRSamastipur, Bihar
9.9BLRIBelari Halt  04:12-04:12-  2-1127.1 5351mECRMalti, Bihar
10SPJSamastipur Junction (9)X  04:17+4504:22+475m82-1122.55855mECRSamastipur, Bihar
10.1KPGMKarpurigram (3)  04:28-04:28-  2-1116.2 5851mECRState Highway 49, Bihar
11KRBPKhudiram B PusaX  04:36+5404:37+551m--2-1108.86252mECRDistt. Samastipur, Bihar
11.1VBHVishnupur Bathua HaltX  04:41-04:41-  2-1105.1 6255mECRTajpur - Garhia - Pusa Road, Bihar
11.2DUBHDubaha  04:44-04:44-  2-1101.5 6255mECRDubha Station, Bihar
12DOLDholi (2)  04:50+5804:51+1:001m--2-1095.542 ECRDistt. Muzaffarpur, Bihar
12.1SIHOSihoX  05:01-05:01-  2-1088.6 4253mECRNational Highway 28, Bihar
12.2SLTSilaut  05:12-05:12-  2-1080.8 4257mECRMuzaffarpur, Bihar
12.3NRPANarayanpur Anant (3)X  05:20-05:20-  2-1075.2 4256mECRMuzaffarpur, Bihar
13MFPMuzaffarpur Junction (6)X  05:27+1:0605:37+1:0610m32-1070.34557mECRMuzaffarpur, Bihar
13.1RDRam Dayalu Nagar (3)  05:45-05:45-  2-1064.3 4556mECRMuzaffarpur, Bihar
13.2TURTurki (2)  05:55-05:55-  2-1056.6 4555mECRTurki, Bihar
13.3KHIKurhani (2)X  06:04-06:04-  2-1050.2 4556mECRKurhani, Bihar
13.4GRLGoraul (2)X  06:12-06:12-  2-1044.4 4557mECRVAISHALI, Bihar
13.5BNPTBenipatti Pirapur (1)  06:14-06:14-  2-1042.5 4555mECRGhojaul Rd, Bihar
13.6BNRBhagwanpur (2)  06:23-06:23-  2-1036.2 4560mECRBhagwanpur, Bihar
13.7BTHLBithauli (1)  06:29-06:29-  2-1031.5 4558mECRVaishali, Bihar
13.8SAISarai (1)  06:35-06:35-  2-1027.1 4554mECRVaishali, Bihar
13.9GWHGhoshawar (1)  06:43-06:43-  2-1021.1 4554mECRDaulatpur Deoria urf Daulatpur, Bihar
14HJPHajipur Junction (3)  06:49+1:0406:50+1:131m--2-1016.53355mECR06224-272230, Bihar
15SEESonpur Junction (4)  07:00+1:1407:10+1:1010m32-1011.03656mECRSaran, Bihar
15.1PMUParmanandpur (2)X  07:21-07:21-  2-1004.3 3656mECRNational Highway 19, Bihar
15.2NYONayagaon (2)  07:29-07:29-  2-999.7 3653mECRNayagaon Sarai, Bihar
15.3STLRSitalpur (2)X  07:42-07:42-  2-992.0 3657mECRSitalpur, Bihar
15.4DGADighwara (2)  07:49-07:49-  2-987.8 3660mECR06158-281240, Bihar
15.5AABHAmbika Bhawani Halt (1)O  07:55-07:55-  2-983.9 3659mECRNH 19, Bihar
15.6ATNRAwatarnagar (2)  07:58-07:58-  2-982.0 3656mECRNH 19, Bihar
15.7PPDAPanchpatia Deoria Halt (1)X  08:02-08:02-  2-979.8 3657mECRNH 19, Bihar
15.8BAGLBaragopal (2)  08:07-08:07-  2-977.0 3657mECRSH 46, Bihar
15.9DRIDumri Juara (2)  08:13-08:13-  2-972.9 3657mECRSaran, Bihar
15.10GJHGoldinganj (2)X  08:21-08:21-  2-968.2 3658mECRChapra Patna Highway, Bihar
15.11CIChhapra Kacheri (3)  08:36-08:36-  2-959.1 3657mNERChhapra, Bihar
16CPRChhapra Junction (6)X  08:40+1:0408:50+1:0310m32-956.97358mNERDistt: Saran, Bihar
16.1TKVRTeknewas (2)X  08:54-08:54-  2-952.6 7358mNERSaran, Bihar
16.2KPSKopa Samhota (2)O  08:59-08:59-  2-946.3 7369mNERKopa Samhota Station Rd, Bihar
16.3DDPDaudpur (2)X  09:06-09:06-  2-937.7 7359mNERChhapra, Bihar
16.4EKMAEkma (3)  09:13-09:13-  2-929.0 7364mNERSaran, Bihar
16.5MHRNMahendranath Halt (2)  09:17-09:17-  2-923.7 7363mNERMahendrana, Uttar Pradesh
16.6CWChainwa (2)  09:19-09:19-  2-921.7 7363mNERSiwan, Bihar
16.7DDADuraundha Junction (3)  09:25-09:25-  2-913.5 7364mNERDistt: Siwan, Bihar
16.8PCKPachrukhi (2)  09:33-09:33-  2-904.1 7367mNERPachrukhi, Bihar
17SVSiwan Junction (4)X  09:40+1:1109:45+1:125m--2-895.75370mNERSiwan, Bihar
17.1ZRDEJiradei (2)  09:57-09:57-  2-885.4 5369mNERSiwan, Bihar
17.2KYWKarchhue  10:03-10:03-  2-879.9 5370mNERState Highway 47, Bihar
17.3MWMairwa (2)XO  10:09-10:09-  2-874.4 5373mNERMairwa, Bihar
17.4BTKBankata (2)X  10:17-10:17-  2-868.0 5373mNERDeoria, Uttar Pradesh
17.5BHTRBhatpar Rani (2)X  10:26-10:26-  2-859.9 5373mNERDeoria, Uttar Pradesh
17.6NNPRNonapar  10:35-10:35-  2-851.8 5376mNERSalempur Mairwa Rd, Uttar Pradesh
17.7BTTBhatni Junction (5)  10:40-10:40-  2-847.0 5373mNERDeoria, Uttar Pradesh
17.8NRANunkhar (2)  10:49-10:49-  2-839.7 5375mNERBaikunthpur, Uttar Pradesh
17.9AHLRAhalyapur  10:57-10:57-  2-832.4 5381mNERDeoria, Uttar Pradesh
18DEOSDeoria Sadar (3)  11:04+1:0011:05+1:051m--2-826.24279mNERDeoria- 274001, Uttar Pradesh
18.1BALRBaitalpur (2)  11:14-11:14-  2-819.7 4282mNERPin- 274201, Uttar Pradesh
18.2GBGauri Bazar (2)  11:26-11:26-  2-811.2 4282mNERDistrict Deoria- Pincode- 274202, Uttar Pradesh
18.3CCChauri Chaura (2)X  11:40-11:40-  2-801.5 4284mNERGorakhpur- PinCode:- 273201, Uttar Pradesh
18.4SANRSardarnagar  11:48-11:48-  2-796.2 4282mNERGorakhpur-Deoria Road, Uttar Pradesh
18.5KHMKusmhi (2)  11:56-11:56-  2-790.2 4283mNERGorakhpur, Uttar Pradesh
18.6GKCGorakhpur Cantt. (3)  12:10-12:10-  2-780.8 4285mNERGorakhpur-273001, Uttar Pradesh
19GKPGorakhpur Junction (10)X  12:15+1:3412:35+1:3520m52-777.15584mNERGorakhpur 273001, Uttar Pradesh
19.1DMGDomingarh (2)  12:39-12:39-  2-773.0 5580mNERGorakhpur- 273004, Uttar Pradesh
19.2JTBJagatbela (2)X  12:47-12:47-  2-766.3 5578mNERDistt Gorakhpur- 273015, Uttar Pradesh
19.3SWASahjanwa (2)  12:54-12:54-  2-760.0 5580mNERGorakhpur - 273209, Uttar Pradesh
19.4SIPRSihapar Halt (2)  12:59-12:59-  2-755.0 5580mNERGorakhpur, Uttar Pradesh
19.5MHHMaghar (3)  13:03-13:03-  2-751.7 5583mNERNH 28. Distt- SantKabirNagar- 272173, Uttar Pradesh
20KLDKhalilabad (3)X  13:12+1:4213:13+1:431m12-743.26686mNERKhalilabad- 272175, Uttar Pradesh
20.1CRVChureb (2)  13:20-13:20-  2-735.4 6688mNERDistrict- Khalilabad, Uttar Pradesh
20.2MNDMunderwa (2)X  13:27-13:27-  2-727.9 6689mNERNational Highway 28, Uttar Pradesh
20.3ORWOrwara (2)  13:33-13:33-  2-721.3 6691mNERDistrict- BASTI, Uttar Pradesh
21BSTBasti (4)X  13:40+1:4413:45+1:455m12-713.77490mNERBasti 272001, Uttar Pradesh
21.1GOVRGovindnagar (2)  13:50-13:50-  2-707.3 7493mNERPin-272002, Uttar Pradesh
21.2THTinich (2)X  13:57-13:57-  2-698.9 7495mNERDistrict- Basti, Uttar Pradesh
21.3GAURGaur (2)  14:04-14:04-  2-690.7 7496mNERDistrict-Basti, Uttar Pradesh
21.4BVBabhnan (2)  14:10-14:10-  2-682.9 74101mNERDistrict- Basti, Uttar Pradesh
21.5PATIParsa Tiwari (2)  14:14-14:14-  2-677.3 7498mNERChhapaiya Rd, Uttar Pradesh
21.6BNGYBahman Jyotia (2)  14:16-14:16-  2-674.8 74100mNERGonda, Uttar Pradesh
21.7SNCSwami Narayan Chhapia (2)  14:19-14:19-  2-671.5 74100mNERS Narayan Chpla, Uttar Pradesh
21.8MSWMaskanwa (2)  14:23-14:23-  2-667.2 74103mNERChhapaiya Rd, Uttar Pradesh
21.9LKNRLakhpat Nagar (2)  14:30-14:30-  2-658.3 74102mNERMankapur, Uttar Pradesh
22MURMankapur Junction (5)X14:34+1:4314:36+1:432m--2-653.170104mNERDistrict Gonda, Uttar Pradesh
22.1JLHIJhilahi (2)  14:42-14:42-  2-646.6 70102mNERSH 9, Uttar Pradesh
22.2MOTGMotiganjX  14:47-14:47-  2-640.3 70111mNERGonda, Uttar Pradesh
22.3BRCKBarua Chak (2)  14:53-14:53-  2-632.9 70107mNERBaruachak, Uttar Pradesh
23GDGonda Junction (3)  15:00+1:4515:05+1:465m12-625.245110mNERGonda 271001, Uttar Pradesh
23.1GDKGonda Kachahri (3)  15:11-15:11-  2-620.3 45110mNERGonda, Uttar Pradesh
23.2KTHLKathola (2)  15:21-15:21-  2-613.4 45106mNERGonda, Uttar Pradesh
23.3MIRMaijapur (2)  15:28-15:28-  2-607.6 45108mNERGonda, Uttar Pradesh
23.4KSRKasturi (2)  15:36-15:36-  2-602.1 45108mNERkasturi Gonda, Uttar Pradesh
23.5CLJColonelGanj (2)X  15:43-15:43-  2-596.3 45108mNERGonda, Uttar Pradesh
23.6SUJSarju (2)X  15:53-15:53-  2-588.6 45109mNERGonda, Uttar Pradesh
23.7JLDJarwal Road (2)  16:06-16:06-  2-579.1 45112mNERBehraich, Uttar Pradesh
23.8GHTGhaghara Ghat (2)  16:11-16:11-  2-575.0 45107mNERBahraich, Uttar Pradesh
23.9CKGChowka Ghat (2)X  16:19-16:19-  2-569.4 45107mNERBarabanki, Uttar Pradesh
23.10BUWBurhwal Junction (3)X  16:27-16:27-  2-563.0 45119mNERBarabanki, Uttar Pradesh
23.11BURBindaura (2)  16:40-16:40-  2-553.4 45125mNERbarabanki, Uttar Pradesh
23.12RFRRafinagar (2)X  16:44-16:44-  2-550.1 45124mNERbarabanki, Uttar Pradesh
23.13JBRJahangirabad Rj (2)  16:52-16:52-  2-544.1 45125mNERJahangirabad, Uttar Pradesh
24BBKBarabanki Junction (4)  17:03+1:2617:05+1:282m--2-535.938122mNRPin-225001, Uttar Pradesh
24.1SFHSafedabad (3)X  17:17-17:17-  2-528.3 38120mNRBarabanki, Uttar Pradesh
24.2JRRJugaur (1)X  17:22-17:22-  2-524.9 38123mNRCanal Rd, Uttar Pradesh
24.3MLMalhaur (3)X  17:31-17:31-  2-519.4 38121mNRLucknow, Uttar Pradesh
25LKOLucknow Charbagh (9)X  17:50+1:3218:25+1:2635m42-507.465123mNR226004, Uttar Pradesh
25.1LJNLucknow Junction (6)X  18:26-18:26-  2-506.6 65126mNERLucknow, Uttar Pradesh
25.2LNWTLucknow West  18:27-18:27-  2-505.7 65123mNRLucknow, Uttar Pradesh
25.3MKGManak Nagar (3)  18:29-18:29-  2-502.6 65129mNRAlambagh, Uttar Pradesh
25.4AMSAmausi (3)  18:35-18:35-  2-496.3 65126mNRLucknow, Uttar Pradesh
25.5POFPiparsand (2)X  18:40-18:40-  2-490.5 65126mNRNational Highway 25A near Lonha village, Uttar Pradesh
25.6HRNHarauni (3)X  18:46-18:46-  2-484.2 65128mNRLucknow, Uttar Pradesh
25.7JTUJaitipur (2)  18:51-18:51-  2-479.2 65127mNRNational Highway 25, Uttar Pradesh
25.8KVXKusumbhi (2)X  18:56-18:56-  2-473.8 65126mNRAjgain, Uttar Pradesh
25.9AJAjgain (3)  19:01-19:01-  2-468.2 65128mNRAjgain, Uttar Pradesh
25.10SICSonik (2)X  19:06-19:06-  2-462.2 65129mNRNational Highway 25, Uttar Pradesh
26ONUnnao Junction (5)X  19:15+1:3019:16+1:311m--2-452.831129mNRUnnao, Uttar Pradesh
26.1MGWMagarwara (2)X  19:28-19:28-  2-446.4 31128mNRUnnao, Uttar Pradesh
26.2CPBKanpur Bridge Left Bank (3)  19:42-19:42-  2-439.3 31120mNRKanpur, Uttar Pradesh
27CNBKanpur Central (10)X  19:50+1:3720:00+1:4010m62-435.486128mNCRKANPUR-208 001, Uttar Pradesh
27.1GMCKanpur Goods Marshalling Yard  20:01-20:01-  2-434.2 86128mNCRKanpur-208 014, Uttar Pradesh
27.2CNJOJuhi Outer Cabin  20:02-20:02-  2-432.5 86131mNCRKanpur, Uttar Pradesh
27.3CPNLKanpur C PanelX  20:02-20:02-  2-432.0 86127mNCRKanpur, Uttar Pradesh
27.4GOYGovindpuri Junction (2)X  20:03-20:03-  2-431.5 86129mNCRKANPUR-208 006, Uttar Pradesh
27.5PNKPanki (3)X  20:08-20:08-  2-423.9 86129mNCRKANPUR-208 020, Uttar Pradesh
27.6BPUBhaupurX  20:16-20:16-  2-412.7 86133mNCRKANPUR Dehat-209 307, Uttar Pradesh
27.7MTOMaitha  20:23-20:23-  2-402.8 86235mNCRMDR 78C, Uttar Pradesh
27.8RMWRoshan MauX  20:26-20:26-  2-398.7 86135mNCRRoshan Mau, Uttar Pradesh
27.9RURARura (4)  20:31-20:31-  2-391.1 86137mNCRJhinjhak, Uttar Pradesh
27.10AAPAmbiapurX  20:37-20:37-  2-382.3 86140mNCRJhinjhak, Uttar Pradesh
27.11JJKJhinjhak (3)X  20:44-20:44-  2-372.0 86140mNCRAuraiya, Uttar Pradesh
27.12PJYPara Jani Halt (1)X  20:48-20:48-  2-366.2 86139mNCRPara Jani, Uttar Pradesh
27.13KNSKanchausi (2)X  20:52-20:52-  2-361.1 86143mNCRState Highway 21, Uttar Pradesh
27.14PHDPhaphund (4)XO  20:58-20:58-  2-352.2 86146mNCRdist. Auraiya, Uttar Pradesh
27.15PATAPata (3)X  21:04-21:04-  2-343.8 86143mNCRPhaphund, Uttar Pradesh
27.16ULDAchalda (3)  21:10-21:10-  2-335.4 86147mNCRDist. Auraiya(05688-1072), Uttar Pradesh
27.17GHSRGhasara Halt (1)X  21:13-21:13-  2-330.0 86146mNCRPhaphund, Uttar Pradesh
27.18SHWSamhon (2)X  21:16-21:16-  2-326.3 86144mNCRSamahon, Uttar Pradesh
27.19BNTBharthana (3)  21:23-21:23-  2-315.9 86147mNCRBharthana, Uttar Pradesh
27.20EKLEkdil (2)X  21:30-21:30-  2-305.7 86150mNCRSarai Ikdil, Uttar Pradesh
28ETWEtawah (5)X  21:37+1:5821:38+2:021m22-296.087154mNCRDistt. Etawah, Uttar Pradesh
28.1SBSarai Bhopat (2)  21:44-21:44-  2-287.7 87151mNCREtawah(05688-1072), Uttar Pradesh
28.2JGRJaswantnagar (2)  21:49-21:49-  2-280.1 87154mNCRJaswantnagar, Uttar Pradesh
28.3BBLBalrai (3)O  21:55-21:55-  2-271.3 87157mNCRBalrai, Uttar Pradesh
28.4BDNBhadan (2)  22:02-22:02-  2-260.6 87160mNCRFirozabad, Uttar Pradesh
28.5KAAKaurara (3)X  22:09-22:09-  2-251.5 87160mNCRFirozabad Distt, Uttar Pradesh
28.6SKBShikohabad Junction (4)X  22:16-22:16-  2-240.6 87166mNCRDistrict Firozabad, Uttar Pradesh
28.7MNRMakkhanpur (2)X  22:23-22:23-  2-230.7 87166mNCRNational Highway 2, Uttar Pradesh
29FZDFirozabad (4)X  22:30+2:0822:31+2:141m32-220.825164mNCRFirozabad, Uttar Pradesh
29.1HNGHirangaon (2)X  22:49-22:49-  2-213.0 25166mNCRNational Highway 2, Uttar Pradesh
30TDLTundla Junction (5)X  23:10+1:5123:15+1:535m22-204.290167mNCRDistt.Firozabad, Uttar Pradesh
30.1WSCShivarampur  23:17-23:17-  2-200.7 90168mNCRShivarampur, Uttar Pradesh
30.2MTIMitawali (1)X  23:20-23:20-  2-197.4 90169mNCRMitawali, Uttar Pradesh
30.3BRNBarhan Junction  23:25-23:25-  2-189.5 90173mNCRJN Point-Tundle/Aligarh/Etah, Uttar Pradesh
30.4CMRChamrola (1)  23:29-23:29-  2-182.7 90174mNCRMDR 106W, Uttar Pradesh
30.5JLSJalesar Road (1)  23:34-23:34-  2-176.3 90172mNCRMDR 106W, Uttar Pradesh
30.6PORAPora (2)X  23:40-23:40-  2-166.6 90179mNCRHathras, Uttar Pradesh
31HRSHathras Junction (3)X  23:47+2:0223:48+2:031m--2-156.267183mNCRMahamaya Nagar(05722-242803), Uttar Pradesh
31.1SNSSasni (3)  23:56-23:56-  2-147.3 67185mNCRSasni, Uttar Pradesh
31.2MXKMandrak (2)  00:03-00:03-  3-139.9 67190mNCRNational Highway 93, Uttar Pradesh
31.3DAQDaud Khan (3)  00:09-00:09-  3-133.1 67189mNCRNational Highway 91, Uttar Pradesh
32ALJNAligarh Junction (4)X  00:15+2:0500:20+2:065m33-126.187192mNCRAligarh, Uttar Pradesh
32.1MWUEMahrawal (2)  00:24-00:24-  3-119.7 87189mNCRNational Highway 91, Uttar Pradesh
32.2KLAKulwa (2)X  00:28-00:28-  3-114.1 87190mNCRAligarh, Uttar Pradesh
32.3SOMSomna (2)  00:35-00:35-  3-104.0 87195mNCRNational Highway 91, Uttar Pradesh
32.4DARDanwar (2)  00:42-00:42-  3-93.7 87198mNCRDanwar, Uttar Pradesh
32.5KAMPKamalpur (2)  00:46-00:46-  3-88.1 87195mNCRKamalpur, Uttar Pradesh
33KRJKhurja Junction (4)X00:50+2:1400:52+2:142m--3-82.652199mNCRBulandshahr, Uttar Pradesh
33.1SKQSikandarpur (2)X  00:59-00:59-  3-76.9 52199mNCRMDR 70W, Uttar Pradesh
33.2GNRLGangraul (3)  01:04-01:04-  3-72.1 52200mNCRMDR 70W, Uttar Pradesh
33.3CHLChola (3)  01:09-01:09-  3-68.0 52204mNCRTahsil Bulandshahar, Uttar Pradesh
33.4WIRWair  01:15-01:15-  3-63.2 52203mNCRBhati Harish Singh, Uttar Pradesh
33.5WAIRWair (2)  01:15-01:15-  3-63.1 52203mNCRBulandshahr District, Uttar Pradesh
33.6DKDEDankaur (3)  01:25-01:25-  3-54.1 52209mNCRShyam Nagar Mandi, Uttar Pradesh
33.7AJRAjaibpur (2)  01:35-01:35-  3-45.8 52207mNCRGreater Noida, Uttar Pradesh
33.8BRKYBoraki (2)  01:41-01:41-  3-40.9 52208mNCRNational Highway 91, Uttar Pradesh
33.9DERDadri (3)  01:45-01:45-  3-36.7 52210mNCR203207, Uttar Pradesh
33.10MIUMaripat (2)  01:53-01:53-  3-29.9 52213mNCRNational Highway 91, Uttar Pradesh
33.11CYZChipyana Buzurg (1)  02:01-02:01-  3-23.5 52209mNRGhaziabad, Uttar Pradesh
34GZBGhaziabad Junction (6)  02:05+2:0102:07+2:012m33-19.945217mNRGhaziabad, Uttar Pradesh
34.1SBBSahibabad Junction (5)X  02:16-02:16-  3-13.2 45209mNRGhaziabad, Uttar Pradesh
34.2DSAPDelhi Shahdara A Panel  02:22-02:22-  3-8.9 45208mNRVivek Vihar Phase I, Delhi NCT
34.3VVBVivek Vihar (2)  02:22-02:22-  3-8.6 45209mNRJhilmil Industrial Area, Delhi NCT
35DSAShahdara Junction (4)  02:25+2:0502:26+2:061m--3-6.316212mNRCircular Rd, Delhi NCT
36DLI»Old Delhi Junction (16)»  02:50+2:0503:25+1:5635m1030.056219mNRNear Chandni Chowk Metro Station, Delhi NCT
36.1DSBSadar Bazar (4)  03:26-03:26-  31.3 56220mNRSadar Bazaar, Delhi NCT
36.2SZMDelhi Sabzi Mandi (2)  03:29-03:29-  33.6 56220mNRGulabi Bagh, Delhi NCT
36.3DAZAzadpur (2)  03:34-03:34-  38.0 56218mNRLal Bagh, Delhi NCT
36.4NDAZNaya Azadpur  03:35-03:35-  39.6 56213mNRNaya Azadpur, Delhi NCT
36.5ANDIAdarsh Nagar (2)  03:36-03:36-  310.1 56214mNRShalimar Bagh, Delhi NCT
36.6BHDBadli (2)X  03:40-03:40-  314.2 56217mNRRohini, Delhi NCT
36.7KHKNKhera Kalan (2)  03:44-03:44-  317.5 56215mNRKhera Kalan, Delhi NCT
36.8HUKHolambi KalanX  03:48-03:48-  321.3 56216mNRHolambi Kalan, Delhi NCT
36.9NURNarela (2)X  03:54-03:54-  326.8 56222mNRNarela, Delhi NCT
36.10RDDERathdhana (2)  04:01-04:01-  333.5 56223mNRSonipat, Haryana
36.11HNNHarana Kalan (2)  04:06-04:06-  338.5 56216mNRKMP Expy, Haryana
37SNPSonipat (3)X  04:12+2:1004:13+2:121m--343.971225mNRSonipat, Haryana
37.1SLKNSandal Kalan  04:20-04:20-  352.3 71223mNRSonepat, Haryana
37.2RUGRajlu Garhi  04:23-04:23-  355.3 71223mNRSonepat, Haryana
37.3GNUGanaurX  04:26-04:26-  359.8 71222mNRGanaur, Haryana
37.4BDMJBhodwal MajriX  04:31-04:31-  365.8 71224mNRRailway Rd, Haryana
37.5SMKSamalkha (3)  04:37-04:37-  372.1 71229mNRSamalkha, Haryana
37.6DWNADiwanaX  04:44-04:44-  381.0 71234mNRNH 1, Haryana
38PNP•Panipat Junction (5)•X  04:51+2:1104:53+2:112m3389.176235mNRPanipat, Haryana
38.1BBDEBabarpur (2)  04:58-04:58-  395.8 76238mNRBaberpur Mandi, Haryana
38.2KFUKohand (2)  05:02-05:02-  3100.8 76238mNRKarnal, Haryana
38.3GRAGharaunda (2)  05:06-05:06-  3106.0 76244mNRGharaunda, Haryana
38.4BZJTBazida Jatan (2)X  05:13-05:13-  3114.0 76246mNRMaduban, Haryana
39KUNKarnal (3)  05:20+2:0905:21+2:101m23123.564253mNRKarnal, Haryana
39.1BZKBhaini Khurd (1)  05:27-05:27-  3130.2 64255mNRBhaini Khurd Village, Haryana
39.2TRRTaraori (2)  05:32-05:32-  3135.6 64255mNRTaraori, Haryana
39.3NLKRNilokheri  05:36-05:36-  3139.5 64254mNRNilokheri, Haryana
39.4AMINAmin (2)  05:44-05:44-  3148.1 64257mNRKarnal, Haryana
40KKDEKurukshetra Junction (3)  05:52+1:4605:54+1:462m--3156.645260mNRKurukshetra, Haryana
40.1DHKRDhoda Khedi (2)  06:01-06:01-  3161.7 45257mNRMDR 116, Haryana
40.2DPPDhirpur (2)  06:09-06:09-  3167.6 45262mNRNH 1, Haryana
40.3DHMZDhola Mazra (2)X  06:16-06:16-  3173.1 45262mNRNH 1, Haryana
40.4SHDMShahbad Markanda (2)X  06:24-06:24-  3178.8 45267mNRShahabad Markanda, Haryana
40.5MOYMohri (2)X  06:37-06:37-  3188.8 45270mNRMohri, Haryana
41UMBAmbala Cantt. Junction (7)  06:50+2:0107:00+2:0210m73198.767278mNRAmbala 133001, Haryana
41.1UBCAmbala City (3)X  07:07-07:07-  3206.2 67273mNRNH-1, Haryana
41.2SMUSambhu (2)  07:15-07:15-  3215.7 67270mNRNH-1, Punjab
42RPJRajpura Junction (3)07:25+2:0607:27+2:072m13226.793272mNRNH-1, Punjab
42.1SBJSarai Banjara (2)X  07:33-07:33-  3235.8 93268mNRFatehgarh Sahib, Punjab
42.2SDYSadhoo Garh (2)  07:37-07:37-  3242.1 93268mNRFatehgarh Sahib, Punjab
43SIRSirhind Junction (3)X  07:43+2:0607:45+2:062m13251.677271mNRSirhind, Punjab
43.1GVGMandi Gobindgarh (2)  07:53-07:53-  3261.3 77268mNRMandi Gobindgarh, Punjab
44KNNKhanna (3)  07:59+2:0808:00+2:091m13269.557269mNRNH 1, Punjab
44.1CHAChawapail (2)X  08:11-08:11-  3280.4 57267mNRLudhiana, Punjab
44.2JSPNJaspalon  08:17-08:17-  3285.7 57261mNRJaspalo, Punjab
44.3DOADoraha (2)X  08:21-08:21-  3289.8 57261mNRDoraha, Punjab
44.4SNLSanehwal (3)  08:29-08:29-  3297.1 57260mNRLudhiana, Punjab
44.5DDLDhandari Kalan (3)X  08:37-08:37-  3304.8 57254mNRDhandari Kalan, Punjab
44.6BHOIDhandari Kalan Block Hut (2)  08:42-08:42-  3309.1 57251mNRLudhiana, Punjab
45LDHLudhiana Junction (7)X  08:45+2:1608:55+2:2610m23312.333246mNRLudhiana 141001, Punjab
45.1LDWLadhowal (2)XO  09:11-09:11-  3321.1 33243mNRLadhowal, Punjab
46PHRPhillaur Junction (3)X  09:19+2:2309:20+2:241m23325.471246mNRPhillaur, Punjab
46.1BTTNBhatian (2)  09:25-09:25-  3331.5 71244mNRBhattian, Punjab
46.2GRYGoraya (2)  09:31-09:31-  3338.1 71240mNRGoraya, Punjab
46.3MAULMauli (2)  09:35-09:35-  3343.7 71240mNRAsian Highway 2, Punjab
46.4MLIHMauli Halt (2)  09:36-09:36-  3343.8 71242mNRphagwara, Punjab
47PGWPhagwara Junction (3)X  09:39+2:2609:40+2:281m23347.985245mNRPhagwara, Punjab
47.1CEUChiheru (2)O  09:46-09:46-  3355.7 85238mNRDistt Kapurthala 144411, Punjab
47.2JRCJalandhar Cantt. Junction (3)  09:52-09:52-  3364.2 85239mNRNear Rama Mandi, Punjab
48JUCJalandhar City Junction (5)XO  09:55+2:4410:05+2:4210m13369.145239mNRJalandhar 144001, Punjab
48.1BBSLBaba Sodhal Nagar  10:09-10:09-  3372.4 45239mNRJalandhar, Punjab
48.2SRXSura Nussi (2)X  10:15-10:15-  3376.3 45236mNRSura Nussi, Punjab
48.3KREKartarpur (2)  10:24-10:24-  3383.7 45236mNRKartarpur, Punjab
48.4HMRHamira (2)  10:33-10:33-  3390.1 45202mNRKapurthala, Punjab
48.5RYMRamidi Halt  10:36-10:36-  3392.4 45224mNRGrand Trunk Road, Punjab
48.6DIWDhilwan (2)  10:45-10:45-  3399.4 45225mNRDhilwan, Punjab
49BEASBeas Junction (2)  10:53+2:2610:54+2:281m13405.227238mNRBeas, Punjab
49.1BBKRBaba Bakala Raiya (2)X  11:06-11:06-  3410.7 27235mNRBeas, Punjab
49.2BTRButari (2)  11:19-11:19-  3416.3 27235mNRDistt Amritsar, Punjab
49.3TRATangra (2)  11:33-11:33-  3422.5 27235mNRAmritsar, Punjab
49.4JNLJandiala (2)X  11:47-11:47-  3429.0 27238mNRJandiala, Punjab
49.5MOWMananwala (2)  12:00-12:00-  3434.8 27233mNRAmritsar, Punjab
50ASRAmritsar Junction (5)  12:30+1:45-33448.2-233mNRAmritsar 143002, Punjab
Scroll to Top
Scroll to Bottom